Time;durP1;ratioP1;P1;durP2;ratioP2;P2;SDS_P1;SDS_P2;PMS_P1;PMS_P2;Temp;Humidity;BMP_temperature;BMP_pressure;BME280_temperature;BME280_humidity;BME280_pressure;Samples;Min_cycle;Max_cycle;Signal;HPM_P1;HPM_P2
2022/11/17 00:01:21;;;;;;;9.88;2.42;;;;;;;;;;5032707;28;20231;-63
2022/11/17 00:03:47;;;;;;;9.02;2.78;;;;;;;;;;5035714;28;20313;-63
2022/11/17 00:06:12;;;;;;;4.63;2.20;;;;;;;;;;5034549;28;20358;-62
2022/11/17 00:08:37;;;;;;;6.28;2.60;;;;;;;;;;5033217;28;20208;-62
2022/11/17 00:11:02;;;;;;;8.18;2.50;;;;;;;;;;5031911;28;20620;-62
2022/11/17 00:16:12;;;;;;;7.75;2.47;;;;;;;;;;5031710;28;20226;-62
2022/11/17 00:21:22;;;;;;;8.95;2.83;;;;;;;;;;5032824;28;20303;-62
2022/11/17 00:23:48;;;;;;;7.85;2.60;;;;;;;;;;5031986;28;20295;-63
2022/11/17 00:26:15;;;;;;;7.68;2.83;;;;;;;;;;5032359;28;20725;-63
2022/11/17 00:28:41;;;;;;;8.43;3.20;;;;;;;;;;5031512;28;20266;-62
2022/11/17 00:34:03;;;;;;;7.25;2.70;;;;;;;;;;5033628;28;20225;-62
2022/11/17 00:36:29;;;;;;;7.28;2.80;;;;;;;;;;5015867;28;20626;-62
2022/11/17 00:38:54;;;;;;;7.45;2.60;;;;;;;;;;5030554;28;20227;-62
2022/11/17 00:41:19;;;;;;;10.25;3.03;;;;;;;;;;5032031;28;20265;-62
2022/11/17 00:43:45;;;;;;;11.43;3.20;;;;;;;;;;5032432;28;20583;-62
2022/11/17 00:46:11;;;;;;;5.75;2.63;;;;;;;;;;5031832;28;20200;-63
2022/11/17 00:48:36;;;;;;;11.50;3.00;;;;;;;;;;5034454;28;20215;-62
2022/11/17 00:51:02;;;;;;;8.07;3.10;;;;;;;;;;5033992;28;20266;-62
2022/11/17 00:53:28;;;;;;;7.43;2.60;;;;;;;;;;5033363;28;20216;-62
2022/11/17 00:55:53;;;;;;;8.63;2.50;;;;;;;;;;5033800;28;20235;-62
2022/11/17 00:58:18;;;;;;;9.05;2.72;;;;;;;;;;5033779;28;20596;-62
2022/11/17 01:00:43;;;;;;;9.82;2.85;;;;;;;;;;5032824;28;20308;-62
2022/11/17 01:03:09;;;;;;;9.52;2.95;;;;;;;;;;5033721;28;20227;-62
2022/11/17 01:05:34;;;;;;;12.60;3.20;;;;;;;;;;5033099;28;20212;-62
2022/11/17 01:07:59;;;;;;;7.90;2.70;;;;;;;;;;5033855;28;20307;-63
2022/11/17 01:10:24;;;;;;;10.07;2.70;;;;;;;;;;5033644;28;20681;-63
2022/11/17 01:12:50;;;;;;;10.38;3.58;;;;;;;;;;5032142;28;20222;-63
2022/11/17 01:15:15;;;;;;;9.02;2.90;;;;;;;;;;5030816;28;20204;-62
2022/11/17 01:17:40;;;;;;;8.20;2.75;;;;;;;;;;5031799;28;20288;-62
2022/11/17 01:20:06;;;;;;;7.30;2.92;;;;;;;;;;5030519;28;20706;-62
2022/11/17 01:22:31;;;;;;;9.35;2.78;;;;;;;;;;5031668;28;20212;-62
2022/11/17 01:24:56;;;;;;;8.77;2.60;;;;;;;;;;5031632;28;20625;-62
2022/11/17 01:27:22;;;;;;;8.15;2.80;;;;;;;;;;5030687;28;20223;-62
2022/11/17 01:29:47;;;;;;;9.90;2.88;;;;;;;;;;5031505;28;20232;-63
2022/11/17 01:32:12;;;;;;;10.00;2.58;;;;;;;;;;5030895;28;20227;-62
2022/11/17 01:34:37;;;;;;;7.22;2.03;;;;;;;;;;5032488;28;20204;-62
2022/11/17 01:37:18;;;;;;;10.68;2.60;;;;;;;;;;5033051;28;20215;-62
2022/11/17 01:39:43;;;;;;;6.00;2.00;;;;;;;;;;5033158;28;20250;-62
2022/11/17 01:42:10;;;;;;;7.53;2.38;;;;;;;;;;5032254;28;20322;-61
2022/11/17 01:44:47;;;;;;;7.47;2.28;;;;;;;;;;5048878;28;20210;-62
2022/11/17 01:47:16;;;;;;;9.63;2.33;;;;;;;;;;5025093;28;20219;-62
2022/11/17 01:49:42;;;;;;;7.55;2.22;;;;;;;;;;5032482;28;20204;-62
2022/11/17 01:52:07;;;;;;;6.35;2.00;;;;;;;;;;5032650;28;20211;-62
2022/11/17 01:54:32;;;;;;;8.95;2.30;;;;;;;;;;5033085;28;20582;-62
2022/11/17 01:56:59;;;;;;;6.78;2.30;;;;;;;;;;5032485;28;20239;-62
2022/11/17 01:59:26;;;;;;;8.65;2.10;;;;;;;;;;5032736;28;20315;-62
2022/11/17 02:01:55;;;;;;;7.90;2.30;;;;;;;;;;5014243;28;20212;-62
2022/11/17 02:04:25;;;;;;;8.20;2.30;;;;;;;;;;5032193;28;20260;-62
2022/11/17 02:06:51;;;;;;;5.45;2.13;;;;;;;;;;5015180;28;20758;-62
2022/11/17 02:09:16;;;;;;;8.52;2.17;;;;;;;;;;5014228;28;20299;-63
2022/11/17 02:11:41;;;;;;;7.32;1.88;;;;;;;;;;5032413;28;20302;-62
2022/11/17 02:14:07;;;;;;;5.45;1.55;;;;;;;;;;5032331;28;20582;-62
2022/11/17 02:16:32;;;;;;;5.80;1.40;;;;;;;;;;5031548;28;20212;-62
2022/11/17 02:18:57;;;;;;;4.97;1.70;;;;;;;;;;5032759;28;20228;-62
2022/11/17 02:21:50;;;;;;;5.13;1.58;;;;;;;;;;5032322;28;20289;-62
2022/11/17 02:24:19;;;;;;;4.30;1.90;;;;;;;;;;5031542;28;20335;-62
2022/11/17 02:26:47;;;;;;;3.33;1.48;;;;;;;;;;5031722;28;20215;-62
2022/11/17 02:29:18;;;;;;;4.40;1.45;;;;;;;;;;5032194;28;20278;-62
2022/11/17 02:31:43;;;;;;;4.80;1.50;;;;;;;;;;5012282;28;20220;-62
2022/11/17 02:34:09;;;;;;;4.35;1.42;;;;;;;;;;5030013;28;20768;-62
2022/11/17 02:36:42;;;;;;;4.10;1.70;;;;;;;;;;5024943;28;20211;-62
2022/11/17 02:39:15;;;;;;;5.35;1.58;;;;;;;;;;5011475;28;20215;-61
2022/11/17 02:41:44;;;;;;;5.95;1.30;;;;;;;;;;5030316;28;20207;-62
2022/11/17 02:44:10;;;;;;;4.38;1.20;;;;;;;;;;5029283;28;20576;-61
2022/11/17 02:46:38;;;;;;;5.55;1.40;;;;;;;;;;5037998;28;20281;-62
2022/11/17 02:49:06;;;;;;;5.05;1.65;;;;;;;;;;5012242;28;20574;-61
2022/11/17 02:51:31;;;;;;;4.30;1.30;;;;;;;;;;5013623;28;20234;-62
2022/11/17 02:53:56;;;;;;;3.80;1.20;;;;;;;;;;5014680;28;20658;-62
2022/11/17 02:56:21;;;;;;;4.78;1.25;;;;;;;;;;5031897;28;20212;-61
2022/11/17 02:58:48;;;;;;;2.80;1.25;;;;;;;;;;5030498;28;20223;-62
2022/11/17 03:01:20;;;;;;;4.13;1.02;;;;;;;;;;5030537;28;20577;-62
2022/11/17 03:03:46;;;;;;;4.93;1.10;;;;;;;;;;5031923;28;20224;-62
2022/11/17 03:06:17;;;;;;;4.95;1.52;;;;;;;;;;5030601;28;20215;-62
2022/11/17 03:08:49;;;;;;;4.10;1.10;;;;;;;;;;5014539;28;20211;-62
2022/11/17 03:11:14;;;;;;;5.72;1.33;;;;;;;;;;5020979;28;20838;-62
2022/11/17 03:13:42;;;;;;;4.50;1.10;;;;;;;;;;5019880;28;20294;-62
2022/11/17 03:16:11;;;;;;;5.50;1.40;;;;;;;;;;5021029;28;20282;-62
2022/11/17 03:18:48;;;;;;;4.00;1.30;;;;;;;;;;5022014;28;20219;-62
2022/11/17 03:21:16;;;;;;;3.28;1.25;;;;;;;;;;5017966;28;20722;-62
2022/11/17 03:23:43;;;;;;;3.83;1.27;;;;;;;;;;5015075;28;20215;-62
2022/11/17 03:26:09;;;;;;;6.05;1.67;;;;;;;;;;5016123;28;20536;-62
2022/11/17 03:28:34;;;;;;;6.07;1.30;;;;;;;;;;4994808;28;20257;-62
2022/11/17 03:31:00;;;;;;;3.03;1.30;;;;;;;;;;5022896;28;20262;-62
2022/11/17 03:33:25;;;;;;;3.45;1.25;;;;;;;;;;5023221;28;20274;-62
2022/11/17 03:35:51;;;;;;;5.25;1.20;;;;;;;;;;5023047;28;20720;-62
2022/11/17 03:38:17;;;;;;;4.32;1.40;;;;;;;;;;5022229;28;20365;-62
2022/11/17 03:40:43;;;;;;;4.15;1.65;;;;;;;;;;5023316;28;20318;-62
2022/11/17 03:43:09;;;;;;;4.30;1.52;;;;;;;;;;5003615;28;20787;-62
2022/11/17 03:45:34;;;;;;;4.63;2.20;;;;;;;;;;5016789;28;20242;-62
2022/11/17 03:48:06;;;;;;;4.32;1.67;;;;;;;;;;4997493;28;20303;-62
2022/11/17 03:50:33;;;;;;;3.05;1.40;;;;;;;;;;5017723;28;20208;-62
2022/11/17 03:53:00;;;;;;;3.75;1.67;;;;;;;;;;5005961;28;20219;-62
2022/11/17 03:55:26;;;;;;;4.25;1.65;;;;;;;;;;5010876;28;20567;-62
2022/11/17 03:57:53;;;;;;;3.97;1.70;;;;;;;;;;4993533;28;20612;-61
2022/11/17 04:00:19;;;;;;;5.32;1.80;;;;;;;;;;4986528;28;20244;-62
2022/11/17 04:02:45;;;;;;;6.28;1.77;;;;;;;;;;4985741;28;20667;-62
2022/11/17 04:05:10;;;;;;;5.65;1.50;;;;;;;;;;4985478;28;20213;-62
2022/11/17 04:07:36;;;;;;;3.58;1.30;;;;;;;;;;4997351;28;20921;-62
2022/11/17 04:10:02;;;;;;;4.22;1.63;;;;;;;;;;4995404;28;20219;-62
2022/11/17 04:17:55;;;;;;;4.38;1.50;;;;;;;;;;5032966;28;20227;-62
2022/11/17 04:20:20;;;;;;;4.70;1.40;;;;;;;;;;5016309;28;20220;-62
2022/11/17 04:23:05;;;;;;;4.38;1.55;;;;;;;;;;5012460;28;20286;-62
2022/11/17 04:28:43;;;;;;;3.17;1.55;;;;;;;;;;5012613;28;20259;-62
2022/11/17 04:31:00;;;;;;;3.70;1.60;;;;;;;;;;5011763;28;20220;-62
2022/11/17 04:33:26;;;;;;;4.05;1.30;;;;;;;;;;5012913;28;20295;-62
2022/11/17 04:35:51;;;;;;;3.67;1.60;;;;;;;;;;5011947;28;20303;-62
2022/11/17 04:38:16;;;;;;;2.95;1.60;;;;;;;;;;5011125;28;20244;-62
2022/11/17 04:41:52;;;;;;;6.53;2.03;;;;;;;;;;5017550;28;20223;-62
2022/11/17 04:43:27;;;;;;;4.82;1.90;;;;;;;;;;5021664;28;20207;-62
2022/11/17 04:45:56;;;;;;;3.97;1.60;;;;;;;;;;5022585;28;20208;-62
2022/11/17 04:48:22;;;;;;;5.07;1.67;;;;;;;;;;5022166;28;20212;-62
2022/11/17 04:50:47;;;;;;;4.00;1.70;;;;;;;;;;5021901;28;20250;-62
2022/11/17 04:53:12;;;;;;;6.07;2.00;;;;;;;;;;4993509;28;20212;-62
2022/11/17 04:55:37;;;;;;;4.45;1.65;;;;;;;;;;5021266;28;20335;-62
2022/11/17 04:58:03;;;;;;;2.97;1.60;;;;;;;;;;5014572;28;20734;-62
2022/11/17 05:00:28;;;;;;;3.80;1.70;;;;;;;;;;5014821;28;20220;-62
2022/11/17 05:02:53;;;;;;;3.70;1.60;;;;;;;;;;5016088;28;20235;-62
2022/11/17 05:05:18;;;;;;;5.15;2.25;;;;;;;;;;5020881;28;20211;-62
2022/11/17 05:07:44;;;;;;;4.43;2.10;;;;;;;;;;5023217;28;20226;-62
2022/11/17 05:10:12;;;;;;;4.22;1.92;;;;;;;;;;5021981;28;20726;-61
2022/11/17 05:17:03;;;;;;;4.93;2.38;;;;;;;;;;5021584;28;20218;-62
2022/11/17 05:18:06;;;;;;;4.95;2.13;;;;;;;;;;5020625;28;20265;-61
2022/11/17 05:20:32;;;;;;;6.43;2.10;;;;;;;;;;5014015;28;20220;-62
2022/11/17 05:25:41;;;;;;;5.93;2.20;;;;;;;;;;5014951;28;20261;-62
2022/11/17 05:28:06;;;;;;;4.32;1.90;;;;;;;;;;5021860;28;20223;-62
2022/11/17 05:30:31;;;;;;;5.88;2.40;;;;;;;;;;5021805;28;20211;-62
2022/11/17 05:32:56;;;;;;;6.10;2.22;;;;;;;;;;5021308;28;20605;-63
2022/11/17 05:35:22;;;;;;;6.07;1.92;;;;;;;;;;5021606;28;20342;-62
2022/11/17 05:37:47;;;;;;;4.60;1.70;;;;;;;;;;5021610;28;20678;-62
2022/11/17 05:40:12;;;;;;;4.05;1.90;;;;;;;;;;5020571;28;20231;-62
2022/11/17 05:42:38;;;;;;;5.03;1.60;;;;;;;;;;5016195;28;20335;-62
2022/11/17 05:45:03;;;;;;;4.90;1.50;;;;;;;;;;5012177;28;21216;-62
2022/11/17 05:47:28;;;;;;;4.22;1.70;;;;;;;;;;5012683;28;20507;-62
2022/11/17 05:49:54;;;;;;;4.45;1.88;;;;;;;;;;5020411;28;20258;-62
2022/11/17 05:52:19;;;;;;;4.90;1.77;;;;;;;;;;5020810;28;20227;-62
2022/11/17 05:54:44;;;;;;;4.65;2.08;;;;;;;;;;5021374;28;20257;-62
2022/11/17 05:57:11;;;;;;;5.95;1.90;;;;;;;;;;5020964;28;20231;-62
2022/11/17 05:59:39;;;;;;;5.05;1.75;;;;;;;;;;5021707;28;20490;-61
2022/11/17 06:02:08;;;;;;;3.28;1.55;;;;;;;;;;4999142;28;20594;-62
2022/11/17 06:04:33;;;;;;;6.35;1.85;;;;;;;;;;5015810;28;20513;-62
2022/11/17 06:06:59;;;;;;;6.07;1.65;;;;;;;;;;5013013;28;20216;-62
2022/11/17 06:09:25;;;;;;;5.05;2.20;;;;;;;;;;4991795;28;20291;-62
2022/11/17 06:11:50;;;;;;;4.25;1.70;;;;;;;;;;5018086;28;20219;-62
2022/11/17 06:14:15;;;;;;;4.32;1.42;;;;;;;;;;5021082;28;20219;-62
2022/11/17 06:16:41;;;;;;;4.03;1.48;;;;;;;;;;5020492;28;20216;-62
2022/11/17 06:19:08;;;;;;;6.45;1.67;;;;;;;;;;5019775;28;20251;-63
2022/11/17 06:21:33;;;;;;;5.18;1.42;;;;;;;;;;5021120;28;20215;-62
2022/11/17 06:23:59;;;;;;;5.63;1.80;;;;;;;;;;5018939;28;20257;-62
2022/11/17 06:26:24;;;;;;;5.13;1.50;;;;;;;;;;5017696;28;20294;-62
2022/11/17 06:28:49;;;;;;;5.18;1.70;;;;;;;;;;5013373;28;21379;-62
2022/11/17 06:31:15;;;;;;;8.52;2.00;;;;;;;;;;5013011;28;20693;-63
2022/11/17 06:33:40;;;;;;;4.28;1.70;;;;;;;;;;5014493;28;20220;-63
2022/11/17 06:36:05;;;;;;;5.20;2.03;;;;;;;;;;5019826;28;20239;-62
2022/11/17 06:38:33;;;;;;;5.35;1.60;;;;;;;;;;5000225;28;20227;-62
2022/11/17 06:40:58;;;;;;;4.78;1.40;;;;;;;;;;5020902;28;20670;-62
2022/11/17 06:43:23;;;;;;;5.70;1.95;;;;;;;;;;5019639;28;20290;-62
2022/11/17 06:45:49;;;;;;;3.75;1.60;;;;;;;;;;5020684;28;20226;-62
2022/11/17 06:48:15;;;;;;;4.70;1.25;;;;;;;;;;5020330;28;20211;-62
2022/11/17 06:50:40;;;;;;;4.93;1.42;;;;;;;;;;5014042;28;20238;-62
2022/11/17 06:53:06;;;;;;;4.18;1.48;;;;;;;;;;5012726;28;20699;-62
2022/11/17 06:55:32;;;;;;;5.78;1.50;;;;;;;;;;5012937;28;20215;-62
2022/11/17 06:57:59;;;;;;;5.40;1.40;;;;;;;;;;5015929;28;20224;-62
2022/11/17 07:00:24;;;;;;;6.85;1.58;;;;;;;;;;5019737;28;20695;-62
2022/11/17 07:02:49;;;;;;;5.60;1.33;;;;;;;;;;5018581;28;20293;-62
2022/11/17 07:05:15;;;;;;;7.53;1.70;;;;;;;;;;5019119;28;20204;-62
2022/11/17 07:07:40;;;;;;;4.03;1.33;;;;;;;;;;5020629;28;20762;-62
2022/11/17 07:10:05;;;;;;;5.72;1.40;;;;;;;;;;5020070;28;20215;-62
2022/11/17 07:12:31;;;;;;;6.40;1.63;;;;;;;;;;5016132;28;20223;-62
2022/11/17 07:14:57;;;;;;;5.28;1.25;;;;;;;;;;5012691;28;20766;-62
2022/11/17 07:17:22;;;;;;;5.93;1.20;;;;;;;;;;5012588;28;20211;-61
2022/11/17 07:19:47;;;;;;;4.97;1.25;;;;;;;;;;5015725;28;20281;-62
2022/11/17 07:22:13;;;;;;;4.85;1.17;;;;;;;;;;5020038;28;20219;-62
2022/11/17 07:24:38;;;;;;;5.30;1.00;;;;;;;;;;5020148;28;20746;-62
2022/11/17 07:27:05;;;;;;;5.90;1.08;;;;;;;;;;5019286;28;20216;-62
2022/11/17 07:29:30;;;;;;;5.57;1.08;;;;;;;;;;5020088;28;20242;-62
2022/11/17 07:31:55;;;;;;;4.45;1.00;;;;;;;;;;5020266;28;20219;-61
2022/11/17 07:34:21;;;;;;;5.97;1.20;;;;;;;;;;5017805;28;20662;-61
2022/11/17 07:36:46;;;;;;;6.55;1.10;;;;;;;;;;5013321;28;20277;-61
2022/11/17 07:39:14;;;;;;;4.57;1.00;;;;;;;;;;5010536;28;20266;-61
2022/11/17 07:41:39;;;;;;;6.40;1.20;;;;;;;;;;5011855;28;20426;-64
2022/11/17 07:44:05;;;;;;;5.05;1.40;;;;;;;;;;5018166;28;20216;-65
2022/11/17 07:46:30;;;;;;;5.78;1.20;;;;;;;;;;5017983;28;20663;-63
2022/11/17 07:48:55;;;;;;;5.72;1.20;;;;;;;;;;5018473;28;20207;-64
2022/11/17 07:51:20;;;;;;;5.50;1.30;;;;;;;;;;5018081;28;20262;-64
2022/11/17 07:53:46;;;;;;;8.27;1.30;;;;;;;;;;5018133;28;20212;-64
2022/11/17 07:56:11;;;;;;;3.88;1.10;;;;;;;;;;5018300;28;20215;-64
2022/11/17 07:58:36;;;;;;;5.32;1.35;;;;;;;;;;5012737;28;20634;-64
2022/11/17 08:01:14;;;;;;;6.75;1.35;;;;;;;;;;5017131;28;20212;-64
2022/11/17 08:03:39;;;;;;;5.65;1.20;;;;;;;;;;5026378;28;20344;-64
2022/11/17 08:06:05;;;;;;;5.65;1.00;;;;;;;;;;5028046;28;20683;-64
2022/11/17 08:08:30;;;;;;;6.13;1.20;;;;;;;;;;5019982;28;20346;-64
2022/11/17 08:10:56;;;;;;;5.88;1.42;;;;;;;;;;5031238;28;20196;-64
2022/11/17 08:13:23;;;;;;;6.05;1.13;;;;;;;;;;5032038;28;20216;-64
2022/11/17 08:15:48;;;;;;;4.45;1.10;;;;;;;;;;5031765;28;20535;-65
2022/11/17 08:18:13;;;;;;;5.57;1.50;;;;;;;;;;5031975;28;20670;-66
2022/11/17 08:20:38;;;;;;;5.25;1.20;;;;;;;;;;5032343;28;20212;-64
2022/11/17 08:23:04;;;;;;;5.13;0.95;;;;;;;;;;5031328;28;20675;-63
2022/11/17 08:25:29;;;;;;;4.35;1.20;;;;;;;;;;5032082;28;20212;-64
2022/11/17 08:27:54;;;;;;;4.97;1.10;;;;;;;;;;5032452;28;20680;-64
2022/11/17 08:30:20;;;;;;;5.20;1.05;;;;;;;;;;5031183;28;20259;-64
2022/11/17 08:32:46;;;;;;;7.00;1.70;;;;;;;;;;5027448;28;20210;-64
2022/11/17 08:35:12;;;;;;;8.38;1.50;;;;;;;;;;5013262;28;20690;-66
2022/11/17 08:37:39;;;;;;;8.00;1.23;;;;;;;;;;5031858;28;20215;-67
2022/11/17 08:40:04;;;;;;;3.30;0.82;;;;;;;;;;5031516;28;20234;-68
2022/11/17 08:42:29;;;;;;;5.90;1.00;;;;;;;;;;5032567;28;20633;-68
2022/11/17 08:44:55;;;;;;;5.53;1.33;;;;;;;;;;5031671;28;20223;-68
2022/11/17 08:47:20;;;;;;;6.30;0.90;;;;;;;;;;5031338;28;20219;-68
2022/11/17 08:49:45;;;;;;;4.28;0.95;;;;;;;;;;5031501;28;20219;-66
2022/11/17 08:52:10;;;;;;;7.30;1.05;;;;;;;;;;5031510;28;20603;-67
2022/11/17 08:54:36;;;;;;;4.70;1.20;;;;;;;;;;5032050;28;20227;-67
2022/11/17 08:57:01;;;;;;;6.47;1.23;;;;;;;;;;5030754;28;20215;-66
2022/11/17 08:59:26;;;;;;;6.30;1.02;;;;;;;;;;5032293;28;20227;-67
2022/11/17 09:01:52;;;;;;;4.05;0.90;;;;;;;;;;5029328;28;20293;-69
2022/11/17 09:04:17;;;;;;;3.88;0.90;;;;;;;;;;5028370;28;20722;-69
2022/11/17 09:06:42;;;;;;;6.28;1.23;;;;;;;;;;5017253;28;20216;-69
2022/11/17 09:09:08;;;;;;;5.90;0.93;;;;;;;;;;5000620;28;20283;-66
2022/11/17 09:11:33;;;;;;;3.83;0.93;;;;;;;;;;5010333;28;20671;-67
2022/11/17 09:13:58;;;;;;;3.75;0.93;;;;;;;;;;5024084;28;20216;-67
2022/11/17 09:16:24;;;;;;;4.53;0.93;;;;;;;;;;5016127;28;20220;-67
2022/11/17 09:18:52;;;;;;;4.72;1.00;;;;;;;;;;5011275;28;20221;-67
2022/11/17 09:21:17;;;;;;;4.75;0.80;;;;;;;;;;5011504;28;20243;-67
2022/11/17 09:23:43;;;;;;;3.20;0.65;;;;;;;;;;5011944;28;20675;-66
2022/11/17 09:26:09;;;;;;;3.67;0.85;;;;;;;;;;5010563;28;20216;-65
2022/11/17 09:28:34;;;;;;;3.80;1.10;;;;;;;;;;5012092;28;20208;-65
2022/11/17 09:31:04;;;;;;;4.57;0.90;;;;;;;;;;5011662;28;20213;-65
2022/11/17 09:33:29;;;;;;;3.95;0.82;;;;;;;;;;5010928;28;20672;-65
2022/11/17 09:35:55;;;;;;;1.80;0.55;;;;;;;;;;5011921;28;20208;-66
2022/11/17 09:38:21;;;;;;;3.20;0.82;;;;;;;;;;5011172;28;20251;-65
2022/11/17 09:40:46;;;;;;;3.75;1.00;;;;;;;;;;5009386;28;20232;-65
2022/11/17 09:43:27;;;;;;;4.22;0.77;;;;;;;;;;5011150;28;20216;-65
2022/11/17 09:45:54;;;;;;;5.95;0.90;;;;;;;;;;5011067;28;20196;-65
2022/11/17 09:48:20;;;;;;;2.17;0.80;;;;;;;;;;4993529;28;20212;-65
2022/11/17 09:50:46;;;;;;;3.08;0.80;;;;;;;;;;4993832;28;20209;-65
2022/11/17 09:53:12;;;;;;;3.55;0.80;;;;;;;;;;5010479;28;20212;-65
2022/11/17 09:55:39;;;;;;;3.85;0.88;;;;;;;;;;5011402;28;20213;-65
2022/11/17 09:58:09;;;;;;;2.92;0.60;;;;;;;;;;4993277;28;20246;-65
2022/11/17 10:00:35;;;;;;;2.80;0.88;;;;;;;;;;5010451;28;20212;-65
2022/11/17 10:03:00;;;;;;;6.22;0.85;;;;;;;;;;5001681;28;20262;-65
2022/11/17 10:05:27;;;;;;;6.13;0.73;;;;;;;;;;5023704;28;20215;-66
2022/11/17 10:07:53;;;;;;;2.80;0.50;;;;;;;;;;4992969;28;20243;-66
2022/11/17 10:10:19;;;;;;;2.65;0.80;;;;;;;;;;5010645;28;20265;-65
2022/11/17 10:12:46;;;;;;;4.53;0.80;;;;;;;;;;5011523;28;20261;-66
2022/11/17 10:15:37;;;;;;;2.88;0.70;;;;;;;;;;5014726;28;20204;-65
2022/11/17 10:18:07;;;;;;;3.72;0.80;;;;;;;;;;5012709;28;20223;-66
2022/11/17 10:20:32;;;;;;;3.08;0.88;;;;;;;;;;5013059;28;20220;-66
2022/11/17 10:22:58;;;;;;;3.88;0.70;;;;;;;;;;5029859;28;20265;-66
2022/11/17 10:25:35;;;;;;;3.65;0.80;;;;;;;;;;5030208;28;20223;-66
2022/11/17 10:28:00;;;;;;;2.95;0.70;;;;;;;;;;5030462;28;20212;-66
2022/11/17 10:30:25;;;;;;;3.92;0.80;;;;;;;;;;5029394;28;20747;-66
2022/11/17 10:32:52;;;;;;;1.67;0.80;;;;;;;;;;5029950;28;20228;-67
2022/11/17 10:35:19;;;;;;;3.25;0.93;;;;;;;;;;5029226;28;20224;-66
2022/11/17 10:37:55;;;;;;;3.78;0.80;;;;;;;;;;5030044;28;20230;-66
2022/11/17 10:40:21;;;;;;;3.67;0.80;;;;;;;;;;5000384;28;20237;-66
2022/11/17 10:42:52;;;;;;;4.40;0.80;;;;;;;;;;4989955;28;20232;-66
2022/11/17 10:45:18;;;;;;;4.13;0.80;;;;;;;;;;4990267;28;20240;-66
2022/11/17 10:47:43;;;;;;;3.13;0.90;;;;;;;;;;5009358;28;20216;-65
2022/11/17 10:50:11;;;;;;;5.40;1.08;;;;;;;;;;4991779;28;20247;-65
2022/11/17 10:52:36;;;;;;;4.35;1.20;;;;;;;;;;4995196;28;20681;-65
2022/11/17 10:55:12;;;;;;;2.75;0.98;;;;;;;;;;4990617;28;20264;-65
2022/11/17 10:57:37;;;;;;;4.90;1.05;;;;;;;;;;5000081;28;20204;-65
2022/11/17 11:00:03;;;;;;;3.40;0.85;;;;;;;;;;5034589;28;20232;-65
2022/11/17 11:02:29;;;;;;;4.20;0.68;;;;;;;;;;5010386;28;20611;-63
2022/11/17 11:05:04;;;;;;;2.33;0.70;;;;;;;;;;5009739;28;20213;-63
2022/11/17 11:07:29;;;;;;;3.28;0.77;;;;;;;;;;5030045;28;20215;-63
2022/11/17 11:09:57;;;;;;;3.88;0.70;;;;;;;;;;5029973;28;20555;-62
2022/11/17 11:12:34;;;;;;;4.65;1.17;;;;;;;;;;5028620;28;20754;-62
2022/11/17 11:14:59;;;;;;;3.25;0.80;;;;;;;;;;5006299;28;20216;-62
2022/11/17 11:17:26;;;;;;;3.00;0.80;;;;;;;;;;4988602;28;20231;-63
2022/11/17 11:19:51;;;;;;;6.88;1.90;;;;;;;;;;5010140;28;20232;-62
2022/11/17 11:22:23;;;;;;;3.53;0.90;;;;;;;;;;5008983;28;20219;-62
2022/11/17 11:24:53;;;;;;;6.57;1.25;;;;;;;;;;5001703;28;20224;-62
2022/11/17 11:27:37;;;;;;;4.60;0.82;;;;;;;;;;5009550;28;20587;-62
2022/11/17 11:30:04;;;;;;;1.80;0.63;;;;;;;;;;5009420;28;20692;-62
2022/11/17 11:32:32;;;;;;;3.83;0.60;;;;;;;;;;5009518;28;20205;-62
2022/11/17 11:35:10;;;;;;;3.55;0.73;;;;;;;;;;4992544;28;20654;-62
2022/11/17 11:37:41;;;;;;;3.45;0.75;;;;;;;;;;5009714;28;20219;-62
2022/11/17 11:40:10;;;;;;;3.65;0.63;;;;;;;;;;4988674;28;20298;-62
2022/11/17 11:42:36;;;;;;;1.98;0.63;;;;;;;;;;5010052;28;20216;-62
2022/11/17 11:45:12;;;;;;;4.43;0.60;;;;;;;;;;5009958;28;20259;-62
2022/11/17 11:47:50;;;;;;;4.75;0.70;;;;;;;;;;4995632;28;20216;-63
2022/11/17 11:50:18;;;;;;;3.67;0.70;;;;;;;;;;5024444;28;20334;-62
2022/11/17 11:52:45;;;;;;;2.50;0.50;;;;;;;;;;5032694;28;20212;-62
2022/11/17 11:55:16;;;;;;;3.40;0.60;;;;;;;;;;5031515;28;20679;-62
2022/11/17 11:57:44;;;;;;;2.55;0.68;;;;;;;;;;5015510;28;20215;-62
2022/11/17 12:00:14;;;;;;;3.70;0.70;;;;;;;;;;5013884;28;20232;-62
2022/11/17 12:02:42;;;;;;;3.85;0.70;;;;;;;;;;5032479;28;20235;-61
2022/11/17 12:05:15;;;;;;;6.13;1.00;;;;;;;;;;5022938;28;20576;-62
2022/11/17 12:07:44;;;;;;;6.07;0.73;;;;;;;;;;4992532;28;20580;-63
2022/11/17 12:10:12;;;;;;;7.78;1.00;;;;;;;;;;4993394;28;20216;-65
2022/11/17 12:12:38;;;;;;;2.50;0.75;;;;;;;;;;5003217;28;20212;-64
2022/11/17 12:15:06;;;;;;;6.35;1.08;;;;;;;;;;5015659;28;20324;-64
2022/11/17 12:17:31;;;;;;;5.82;0.88;;;;;;;;;;5013314;28;20675;-64
2022/11/17 12:19:58;;;;;;;5.05;0.90;;;;;;;;;;4995717;28;20236;-64
2022/11/17 12:22:31;;;;;;;3.50;0.73;;;;;;;;;;4994436;28;20215;-64
2022/11/17 12:24:58;;;;;;;4.20;0.70;;;;;;;;;;5013264;28;20208;-64
2022/11/17 12:27:29;;;;;;;2.88;0.70;;;;;;;;;;4995198;28;20221;-64
2022/11/17 12:29:55;;;;;;;3.80;0.98;;;;;;;;;;5011745;28;20204;-64
2022/11/17 12:32:53;;;;;;;3.22;0.60;;;;;;;;;;5012521;28;20323;-64
2022/11/17 12:35:22;;;;;;;4.03;0.90;;;;;;;;;;5011484;28;20300;-62
2022/11/17 12:37:47;;;;;;;5.43;0.90;;;;;;;;;;5012939;28;20232;-62
2022/11/17 12:40:38;;;;;;;2.40;0.60;;;;;;;;;;5013528;28;20233;-62
2022/11/17 12:43:13;;;;;;;3.90;0.82;;;;;;;;;;5011540;28;20228;-62
2022/11/17 12:45:58;;;;;;;7.13;0.82;;;;;;;;;;5011947;28;20204;-62
2022/11/17 12:48:25;;;;;;;4.03;0.70;;;;;;;;;;5012197;28;20204;-62
2022/11/17 12:50:50;;;;;;;3.05;0.60;;;;;;;;;;5012016;28;20574;-62
2022/11/17 12:53:17;;;;;;;2.40;0.70;;;;;;;;;;5012127;28;20295;-64
2022/11/17 12:55:43;;;;;;;2.72;0.57;;;;;;;;;;5011970;28;20700;-64
2022/11/17 12:58:16;;;;;;;4.95;1.38;;;;;;;;;;5011335;28;20223;-62
2022/11/17 13:00:46;;;;;;;3.50;0.68;;;;;;;;;;4994246;28;20588;-62
2022/11/17 13:03:14;;;;;;;4.15;0.70;;;;;;;;;;4993970;28;20237;-62
2022/11/17 13:05:39;;;;;;;2.65;1.00;;;;;;;;;;5011197;28;20254;-62
2022/11/17 13:08:08;;;;;;;9.30;3.85;;;;;;;;;;5022333;28;20220;-66
2022/11/17 13:10:33;;;;;;;44.35;23.85;;;;;;;;;;5031651;28;20231;-62
2022/11/17 13:13:19;;;;;;;13.73;6.57;;;;;;;;;;5030843;28;20212;-63
2022/11/17 13:15:48;;;;;;;7.75;2.38;;;;;;;;;;5020480;28;20212;-63
2022/11/17 13:18:17;;;;;;;4.72;1.17;;;;;;;;;;5021551;28;20306;-63
2022/11/17 13:20:44;;;;;;;2.03;1.02;;;;;;;;;;5012018;28;20230;-63
2022/11/17 13:23:17;;;;;;;3.60;0.65;;;;;;;;;;5012849;28;20265;-63
2022/11/17 13:25:43;;;;;;;2.33;0.60;;;;;;;;;;5031275;28;20239;-63
2022/11/17 13:28:24;;;;;;;4.53;0.65;;;;;;;;;;5031299;28;20576;-63
2022/11/17 13:30:49;;;;;;;1.83;0.63;;;;;;;;;;5031415;28;20203;-65
2022/11/17 13:33:14;;;;;;;3.30;0.60;;;;;;;;;;5030329;28;20212;-63
2022/11/17 13:35:40;;;;;;;2.35;0.60;;;;;;;;;;5031574;28;20751;-63
2022/11/17 13:38:12;;;;;;;3.85;0.65;;;;;;;;;;5030461;28;20211;-63
2022/11/17 13:40:38;;;;;;;3.03;0.60;;;;;;;;;;5015887;28;20227;-63
2022/11/17 13:43:03;;;;;;;2.30;0.70;;;;;;;;;;5011236;28;20579;-65
2022/11/17 13:45:29;;;;;;;5.45;0.80;;;;;;;;;;5010546;28;20266;-63
2022/11/17 13:47:55;;;;;;;3.58;0.70;;;;;;;;;;5010085;28;20267;-65
2022/11/17 13:50:21;;;;;;;3.08;0.82;;;;;;;;;;5011035;28;20230;-65
2022/11/17 13:52:50;;;;;;;2.15;0.57;;;;;;;;;;5010820;28;20243;-62
2022/11/17 13:55:16;;;;;;;9.50;1.92;;;;;;;;;;5009813;28;20216;-63
2022/11/17 13:57:42;;;;;;;3.28;0.90;;;;;;;;;;5011503;28;20251;-63
2022/11/17 14:00:14;;;;;;;5.40;1.15;;;;;;;;;;5008736;28;20255;-63
2022/11/17 14:02:50;;;;;;;4.35;0.90;;;;;;;;;;5019225;28;20228;-63
2022/11/17 14:05:21;;;;;;;3.50;1.10;;;;;;;;;;5050285;28;20676;-63
2022/11/17 14:07:47;;;;;;;3.38;0.73;;;;;;;;;;5049750;28;20207;-63
2022/11/17 14:10:26;;;;;;;5.10;1.20;;;;;;;;;;5049141;28;20207;-63
2022/11/17 14:12:53;;;;;;;2.97;0.77;;;;;;;;;;5048262;28;20605;-65
2022/11/17 14:15:22;;;;;;;3.20;1.02;;;;;;;;;;5029192;28;20204;-63
2022/11/17 14:17:52;;;;;;;3.60;0.80;;;;;;;;;;5030501;28;20219;-63
2022/11/17 14:20:18;;;;;;;3.28;0.88;;;;;;;;;;5029483;28;20236;-63
2022/11/17 14:22:58;;;;;;;2.88;0.73;;;;;;;;;;5011229;28;20239;-62
2022/11/17 14:25:23;;;;;;;3.97;0.90;;;;;;;;;;5010532;28;20219;-62
2022/11/17 14:27:49;;;;;;;4.88;1.00;;;;;;;;;;4992421;28;20224;-62
2022/11/17 14:30:14;;;;;;;4.13;1.00;;;;;;;;;;5010288;28;20676;-62
2022/11/17 14:32:39;;;;;;;4.10;0.98;;;;;;;;;;5010669;28;20297;-62
2022/11/17 14:35:05;;;;;;;4.10;0.98;;;;;;;;;;4992016;28;20216;-62
2022/11/17 14:37:31;;;;;;;4.20;0.88;;;;;;;;;;5010953;28;20209;-62
2022/11/17 14:39:57;;;;;;;3.03;0.85;;;;;;;;;;5020457;28;20224;-62
2022/11/17 14:42:22;;;;;;;5.82;0.85;;;;;;;;;;5029284;28;20589;-62
2022/11/17 14:44:47;;;;;;;5.10;0.82;;;;;;;;;;5030141;28;20212;-62
2022/11/17 14:47:12;;;;;;;5.18;2.20;;;;;;;;;;5029127;28;20215;-62
2022/11/17 14:49:38;;;;;;;3.58;0.95;;;;;;;;;;5029304;28;20764;-62
2022/11/17 14:52:03;;;;;;;3.20;0.80;;;;;;;;;;5029835;28;20220;-62
2022/11/17 14:54:28;;;;;;;6.60;1.00;;;;;;;;;;5030386;28;20805;-62
2022/11/17 14:56:53;;;;;;;6.45;1.15;;;;;;;;;;5029534;28;20204;-62
2022/11/17 14:59:19;;;;;;;4.20;0.75;;;;;;;;;;5029441;28;20230;-62
2022/11/17 15:01:44;;;;;;;8.98;1.33;;;;;;;;;;5030221;28;20560;-62
2022/11/17 15:04:11;;;;;;;5.18;0.85;;;;;;;;;;5028660;28;20224;-63
2022/11/17 15:06:36;;;;;;;4.25;1.20;;;;;;;;;;5029053;28;20207;-62